^^
Grace C. Lehan Memorial Weather Station Historical Data
Daily Summary for September 19, 2021 Units:  English    Metric   Both
Daily Weekly Monthly Yearly
  High: Low: Average:
Temperature: 74.7 °F 59.8 °F 68.3 °F
Dew Point: 66.6 °F 49.2 °F 56.4 °F
Humidity: 88% 41.6% 68%
Wind Speed: 5mph 0mph 0.7mph
Wind Gust: 13mph - -
Wind- - SW
Pressure: 30.21 in 30.00 in -
Precipitation: 0.00 in    
 
 
Tabular Data for September 19, 2021
Time Temperature Dew Point Pressure Wind Wind Speed Wind Gust Humidity Rainfall Rate (Hourly) solar
00:09 70.6 °F 66.6 °F 30.01 in NNW 0.8 mph 5 mph 87% 0.00 in 0 W/m2
00:14 70.6 °F 66.6 °F 30.01 in NNW 1.8 mph 10 mph 87% 0.00 in 0 W/m2
00:19 70.6 °F 66.6 °F 30.01 in NW 1.3 mph 10 mph 87% 0.00 in 0 W/m2
00:24 70.5 °F 66.5 °F 30.01 in NW 0.6 mph 10 mph 87% 0.00 in 0 W/m2
00:29 70.4 °F 66.4 °F 30.01 in NW 0.7 mph 10 mph 87% 0.00 in 0 W/m2
00:34 70.4 °F 66.3 °F 30.01 in NW 1.4 mph 10 mph 87% 0.00 in 0 W/m2
00:39 70.2 °F 66.3 °F 30.01 in NW 1.2 mph 7 mph 87.3% 0.00 in 0 W/m2
00:44 70.1 °F 66.3 °F 30.01 in NW 0.9 mph 7 mph 87.6% 0.00 in 0 W/m2
00:49 70 °F 66.3 °F 30.01 in NW 1.1 mph 7 mph 88% 0.00 in 0 W/m2
00:54 69.9 °F 66.2 °F 30.01 in NW 0.7 mph 7 mph 88% 0.00 in 0 W/m2
00:59 69.8 °F 66.1 °F 30.01 in NW 0.4 mph 7 mph 88% 0.00 in 0 W/m2
01:04 69.7 °F 66 °F 30.01 in NNW 0.4 mph 7 mph 88% 0.00 in 0 W/m2
01:09 69.6 °F 65.9 °F 30.00 in NNW 0.2 mph 6 mph 88% 0.00 in 0 W/m2
01:14 69.5 °F 65.8 °F 30.01 in North 0.5 mph 6 mph 88% 0.00 in 0 W/m2
01:19 69.4 °F 65.7 °F 30.01 in North 0.3 mph 6 mph 88% 0.00 in 0 W/m2
01:24 69.2 °F 65.5 °F 30.01 in North 1.2 mph 6 mph 88% 0.00 in 0 W/m2
01:29 69.1 °F 65.3 °F 30.01 in NNW 1.4 mph 6 mph 87.7% 0.00 in 0 W/m2
01:34 69 °F 65 °F 30.01 in North 1 mph 6 mph 87% 0.00 in 0 W/m2
01:39 69 °F 64.9 °F 30.01 in NNW 0.8 mph 5 mph 87% 0.00 in 0 W/m2
01:44 68.9 °F 64.9 °F 30.01 in NNW 0.5 mph 5 mph 87% 0.00 in 0 W/m2
01:49 68.8 °F 64.8 °F 30.01 in NNW 0.2 mph 5 mph 87% 0.00 in 0 W/m2
01:54 68.7 °F 64.5 °F 30.01 in NNW 0.2 mph 5 mph 86.5% 0.00 in 0 W/m2
01:59 68.6 °F 64.2 °F 30.01 in NNW 0.1 mph 5 mph 86% 0.00 in 0 W/m2
02:04 68.4 °F 64.1 °F 30.01 in NNW 0.8 mph 5 mph 86% 0.00 in 0 W/m2
02:09 68.3 °F 63.9 °F 30.01 in NW 0.7 mph 5 mph 86% 0.00 in 0 W/m2
02:14 68.1 °F 63.6 °F 30.01 in NW 0.3 mph 5 mph 85.5% 0.00 in 0 W/m2
02:19 68 °F 63.3 °F 30.01 in NNW 0.3 mph 5 mph 85% 0.00 in 0 W/m2
02:24 67.8 °F 63.2 °F 30.01 in NNW 0.2 mph 5 mph 85% 0.00 in 0 W/m2
02:29 67.7 °F 63 °F 30.01 in Calm   5 mph 85% 0.00 in 0 W/m2
02:34 67.5 °F 62.9 °F 30.01 in NNW 0.4 mph 5 mph 85% 0.00 in 0 W/m2
02:39 67.4 °F 62.9 °F 30.01 in NNW 0.3 mph 4 mph 85.5% 0.00 in 0 W/m2
02:44 67.2 °F 62.9 °F 30.01 in NNW 0.3 mph 4 mph 86% 0.00 in 0 W/m2
02:49 67 °F 62.7 °F 30.01 in NNW 0.1 mph 4 mph 86% 0.00 in 0 W/m2
02:54 66.8 °F 62.4 °F 30.01 in NNW 0.5 mph 6 mph 85.8% 0.00 in 0 W/m2
02:59 66.6 °F 62 °F 30.01 in NNW 0.5 mph 6 mph 85% 0.00 in 0 W/m2
03:04 66.5 °F 61.8 °F 30.01 in NNW 0.2 mph 6 mph 85% 0.00 in 0 W/m2
03:09 66.3 °F 61.6 °F 30.01 in NNW 0.8 mph 5 mph 85% 0.00 in 0 W/m2
03:14 66.1 °F 61.5 °F 30.01 in NNW 0.1 mph 5 mph 85% 0.00 in 0 W/m2
03:19 66 °F 61.4 °F 30.01 in NNW 0.6 mph 5 mph 85% 0.00 in 0 W/m2
03:24 65.9 °F 61.3 °F 30.01 in NNW 0.5 mph 5 mph 85% 0.00 in 0 W/m2
03:29 65.8 °F 61.2 °F 30.01 in NNW 0.3 mph 5 mph 85% 0.00 in 0 W/m2
03:34 65.7 °F 61.1 °F 30.01 in NNW 0.1 mph 5 mph 85% 0.00 in 0 W/m2
03:39 65.6 °F 61.3 °F 30.02 in Calm   2 mph 86% 0.00 in 0 W/m2
03:44 65.5 °F 61.2 °F 30.02 in Calm   2 mph 86% 0.00 in 0 W/m2
03:49 65.4 °F 61.1 °F 30.02 in NNW 0.4 mph 3 mph 86% 0.00 in 0 W/m2
03:54 65.2 °F 60.9 °F 30.02 in NNW 0.1 mph 3 mph 86% 0.00 in 0 W/m2
03:59 65.1 °F 61 °F 30.02 in NNW 0.6 mph 4 mph 86.6% 0.00 in 0 W/m2
04:09 64.7 °F 60.8 °F 30.03 in NNW 0.2 mph 3 mph 87% 0.00 in 0 W/m2
04:14 64.5 °F 60.6 °F 30.02 in NW 1 mph 7 mph 87% 0.00 in 0 W/m2
04:19 64.4 °F 60.5 °F 30.03 in NW 1 mph 7 mph 87% 0.00 in 0 W/m2
04:24 64.3 °F 60.3 °F 30.03 in NNW 0.7 mph 7 mph 87% 0.00 in 0 W/m2
04:29 64.2 °F 60 °F 30.03 in NNW 0.7 mph 7 mph 86.4% 0.00 in 0 W/m2
04:34 64.1 °F 59.8 °F 30.03 in NNW 0.8 mph 7 mph 86% 0.00 in 0 W/m2
04:39 64 °F 59.6 °F 30.03 in NNW 0.5 mph 6 mph 85.7% 0.00 in 0 W/m2
04:44 63.9 °F 59.5 °F 30.03 in NW 0.3 mph 6 mph 85.7% 0.00 in 0 W/m2
04:49 63.8 °F 59.2 °F 30.03 in NW 0.3 mph 6 mph 85.1% 0.00 in 0 W/m2
04:54 63.6 °F 59 °F 30.03 in NW 0.1 mph 6 mph 85% 0.00 in 0 W/m2
04:59 63.4 °F 58.9 °F 30.03 in Calm   6 mph 85% 0.00 in 0 W/m2
05:04 63.3 °F 58.7 °F 30.04 in Calm   6 mph 85% 0.00 in 0 W/m2
05:09 63.1 °F 58.6 °F 30.03 in NNW 0.4 mph 5 mph 85% 0.00 in 0 W/m2
05:14 63 °F 58.4 °F 30.04 in NNW 0.2 mph 5 mph 85% 0.00 in 0 W/m2
05:19 62.9 °F 58.4 °F 30.04 in NNW 0.3 mph 5 mph 85.4% 0.00 in 0 W/m2
05:24 62.7 °F 58.5 °F 30.04 in NNW 0.5 mph 5 mph 86% 0.00 in 0 W/m2
05:29 62.6 °F 58.7 °F 30.05 in NNW 0.5 mph 6 mph 86.8% 0.00 in 0 W/m2
05:34 62.5 °F 58.6 °F 30.04 in NW 0.2 mph 6 mph 87% 0.00 in 0 W/m2
05:39 62.4 °F 58.5 °F 30.04 in NW 0.4 mph 5 mph 87% 0.00 in 0 W/m2
05:44 62.3 °F 58.3 °F 30.05 in NW 0.6 mph 5 mph 87% 0.00 in 0 W/m2
05:49 62.1 °F 58.2 °F 30.05 in Calm   5 mph 87% 0.00 in 0 W/m2
05:54 62 °F 58.1 °F 30.05 in NW 0.5 mph 5 mph 87% 0.00 in 0 W/m2
05:59 61.8 °F 57.9 °F 30.06 in Calm   5 mph 87% 0.00 in 0 W/m2
06:04 61.7 °F 57.8 °F 30.06 in NW 0.6 mph 5 mph 87% 0.00 in 0 W/m2
06:09 61.5 °F 57.3 °F 30.06 in North 0.2 mph 5 mph 86% 0.00 in 0 W/m2
06:14 61.4 °F 57.2 °F 30.06 in NW 0.4 mph 7 mph 86% 0.00 in 0 W/m2
06:19 61.2 °F 57 °F 30.06 in NW 0.4 mph 7 mph 86% 0.00 in 0 W/m2
06:24 61.1 °F 56.7 °F 30.06 in NW 0.8 mph 7 mph 85.3% 0.00 in 0 W/m2
06:29 61 °F 56.5 °F 30.06 in NW 0.5 mph 7 mph 85% 0.00 in 0 W/m2
06:34 60.9 °F 56.1 °F 30.06 in NW 0.2 mph 7 mph 84.2% 0.00 in 0 W/m2
06:39 60.8 °F 55.8 °F 30.07 in NW 0.6 mph 5 mph 83.6% 0.00 in 0 W/m2
06:44 60.7 °F 55.5 °F 30.07 in NW 0.9 mph 7 mph 83% 0.00 in 5 W/m2
06:49 60.7 °F 55.2 °F 30.07 in NW 1.4 mph 7 mph 82% 0.00 in 5 W/m2
06:54 60.6 °F 55.1 °F 30.08 in NNW 1.1 mph 7 mph 82% 0.00 in 7 W/m2
06:59 60.6 °F 54.9 °F 30.08 in NNW 0.8 mph 7 mph 81.4% 0.00 in 9 W/m2
07:04 60.6 °F 54.7 °F 30.08 in NNW 0.6 mph 7 mph 81% 0.00 in 11 W/m2
07:09 60.6 °F 54.8 °F 30.08 in NNW 0.5 mph 6 mph 81% 0.00 in 11 W/m2
07:14 60.6 °F 54.7 °F 30.09 in NNW 0.2 mph 6 mph 81% 0.00 in 12 W/m2
07:19 60.5 °F 54.7 °F 30.09 in Calm   6 mph 81% 0.00 in 14 W/m2
07:24 60.5 °F 54.7 °F 30.09 in Calm   6 mph 81% 0.00 in 14 W/m2
07:29 60.5 °F 54.7 °F 30.10 in NNW 0.1 mph 6 mph 81% 0.00 in 16 W/m2
07:34 60.5 °F 54.7 °F 30.10 in NW 0.4 mph 6 mph 81% 0.00 in 16 W/m2
07:39 60.6 °F 54.8 °F 30.10 in NNW 0.4 mph 6 mph 81% 0.00 in 18 W/m2
07:44 60.7 °F 54.7 °F 30.11 in NNW 0.2 mph 6 mph 80.5% 0.00 in 18 W/m2
07:49 60.8 °F 54.6 °F 30.11 in NNW 0.1 mph 6 mph 80% 0.00 in 19 W/m2
07:54 61 °F 54.6 °F 30.11 in NNW 0.8 mph 6 mph 79.5% 0.00 in 40 W/m2
07:59 61.2 °F 54.6 °F 30.11 in NNW 0.1 mph 6 mph 79% 0.00 in 28 W/m2
08:04 61.3 °F 54.4 °F 30.11 in Calm     78% 0.00 in 86 W/m2
08:09 61.5 °F 54.8 °F 30.11 in North 0.3 mph 4 mph 78.6% 0.00 in 90 W/m2
08:14 61.8 °F 55.1 °F 30.11 in NNW 0.7 mph 6 mph 78.8% 0.00 in 97 W/m2
08:19 62.1 °F 54.8 °F 30.11 in North 0.6 mph 6 mph 77% 0.00 in 77 W/m2
08:24 62.3 °F 54.9 °F 30.11 in North 0.4 mph 6 mph 76.9% 0.00 in 60 W/m2
08:29 62.3 °F 54.7 °F 30.12 in NNW 0.2 mph 6 mph 76% 0.00 in 91 W/m2
08:34 62.4 °F 54.8 °F 30.12 in Calm   6 mph 76.1% 0.00 in 100 W/m2
08:39 62.5 °F 54.7 °F 30.12 in NNE 0.4 mph 4 mph 75.6% 0.00 in 79 W/m2
08:44 62.6 °F 54.8 °F 30.12 in North 0.3 mph 6 mph 75.5% 0.00 in 88 W/m2
08:49 62.8 °F 54.8 °F 30.12 in NNE 0.5 mph 6 mph 75.2% 0.00 in 93 W/m2
08:54 63.1 °F 54.8 °F 30.12 in NE 0.6 mph 7 mph 74.3% 0.00 in 158 W/m2
08:59 63.5 °F 55 °F 30.12 in NNW 1.5 mph 10 mph 73.8% 0.00 in 408 W/m2
09:04 64 °F 55.3 °F 30.12 in NNE 0.4 mph 10 mph 73.1% 0.00 in 415 W/m2
09:09 64.9 °F 55.9 °F 30.12 in NNE 0.3 mph 5 mph 72.6% 0.00 in 464 W/m2
09:14 65.8 °F 55.6 °F 30.12 in NNW 0.8 mph 9 mph 69.7% 0.00 in 485 W/m2
09:19 66.7 °F 56.1 °F 30.12 in NNW 1 mph 9 mph 68.5% 0.00 in 504 W/m2
09:24 67.8 °F 56.6 °F 30.12 in NW 2.3 mph 10 mph 67.4% 0.00 in 524 W/m2
09:29 68.6 °F 56 °F 30.12 in NNW 0.8 mph 10 mph 63.9% 0.00 in 538 W/m2
09:34 69.1 °F 56.1 °F 30.13 in ENE 1.9 mph 11 mph 63.2% 0.00 in 550 W/m2
09:39 69.3 °F 55.3 °F 30.13 in ENE 1 mph 11 mph 61.1% 0.00 in 557 W/m2
09:44 69.4 °F 55.5 °F 30.13 in NNE 1.8 mph 11 mph 61.3% 0.00 in 571 W/m2
09:49 69.5 °F 55.6 °F 30.13 in NE 1.7 mph 11 mph 61.1% 0.00 in 584 W/m2
09:54 69.7 °F 56 °F 30.13 in ENE 0.7 mph 11 mph 61.6% 0.00 in 601 W/m2
09:59 70 °F 55.7 °F 30.13 in ENE 1.8 mph 11 mph 60.4% 0.00 in 615 W/m2
10:04 70.3 °F 55.1 °F 30.13 in ENE 2.5 mph 11 mph 58.6% 0.00 in 628 W/m2
10:09 70.3 °F 55.3 °F 30.13 in NNE 1.6 mph 12 mph 59% 0.00 in 636 W/m2
10:14 70.7 °F 56.5 °F 30.13 in North 2.2 mph 12 mph 60.6% 0.00 in 650 W/m2
10:19 71.4 °F 56.4 °F 30.13 in NNW 1.3 mph 12 mph 59.1% 0.00 in 657 W/m2
10:24 72.1 °F 57.2 °F 30.13 in North 1.3 mph 12 mph 59.3% 0.00 in 668 W/m2
10:29 72.8 °F 56.4 °F 30.13 in North 2.1 mph 12 mph 56.4% 0.00 in 684 W/m2
10:34 73.2 °F 56.1 °F 30.13 in NNE 2.6 mph 12 mph 55.2% 0.00 in 693 W/m2
10:39 72.9 °F 55.2 °F 30.13 in ENE 1.2 mph 10 mph 53.8% 0.00 in 701 W/m2
10:44 72.7 °F 55.4 °F 30.13 in ENE 1.6 mph 10 mph 54.6% 0.00 in 714 W/m2
10:49 73 °F 55.5 °F 30.13 in NE 2.3 mph 11 mph 54.3% 0.00 in 721 W/m2
10:54 73.1 °F 54.9 °F 30.13 in ENE 3.4 mph 11 mph 52.9% 0.00 in 729 W/m2
10:59 73.1 °F 55 °F 30.13 in East 2.9 mph 11 mph 53.1% 0.00 in 737 W/m2
11:04 72.9 °F 54.6 °F 30.13 in ENE 2.8 mph 12 mph 52.6% 0.00 in 749 W/m2
11:09 73.1 °F 54.5 °F 30.13 in ENE 2.9 mph 12 mph 52.2% 0.00 in 758 W/m2
11:14 73.2 °F 54.7 °F 30.14 in ENE 3.5 mph 12 mph 52.3% 0.00 in 768 W/m2
11:19 73.3 °F 54.8 °F 30.14 in ENE 2.4 mph 12 mph 52.4% 0.00 in 773 W/m2
11:24 73.4 °F 54.5 °F 30.14 in ENE 2.3 mph 12 mph 51.6% 0.00 in 780 W/m2
11:29 73.1 °F 54.7 °F 30.14 in ENE 2.4 mph 12 mph 52.3% 0.00 in 788 W/m2
11:34 73 °F 55 °F 30.14 in ENE 3 mph 12 mph 53.1% 0.00 in 789 W/m2
11:39 73 °F 55.5 °F 30.14 in NE 1.8 mph 11 mph 54.2% 0.00 in 788 W/m2
11:44 73.1 °F 55.2 °F 30.14 in ENE 2.2 mph 11 mph 53.4% 0.00 in 225 W/m2
11:49 72.8 °F 55.1 °F 30.14 in East 0.6 mph 11 mph 53.6% 0.00 in 236 W/m2
11:54 72.4 °F 54.5 °F 30.14 in ENE 1.7 mph 11 mph 53.3% 0.00 in 390 W/m2
11:59 72.1 °F 55.3 °F 30.14 in NE 1 mph 11 mph 55.5% 0.00 in 62 W/m2
12:00 72 °F 55.5 °F 30.13 in NE 5 mph 11 mph 56% 0.00 in 54 W/m2
12:09 71.8 °F 55.2 °F 30.14 in NNE 1 mph 7 mph 55.7% 0.00 in 54 W/m2
12:14 71.7 °F 54.1 °F 30.14 in ENE 1 mph 7 mph 53.8% 0.00 in 42 W/m2
12:19 71.5 °F 54.6 °F 30.14 in North 0.2 mph 7 mph 55.2% 0.00 in 202 W/m2
12:24 71.6 °F 54.7 °F 30.14 in North 1.4 mph 9 mph 55.2% 0.00 in 244 W/m2
12:29 71.8 °F 54.6 °F 30.14 in East 0.3 mph 9 mph 54.7% 0.00 in 459 W/m2
12:34 72 °F 55.1 °F 30.14 in North 0.9 mph 9 mph 55.3% 0.00 in 211 W/m2
12:39 72.2 °F 55.9 °F 30.14 in NE 1.7 mph 11 mph 56.5% 0.00 in 174 W/m2
12:44 72.4 °F 55 °F 30.14 in NE 1.8 mph 11 mph 54.4% 0.00 in 111 W/m2
12:49 72.3 °F 55.9 °F 30.14 in NNW 0.9 mph 11 mph 56.3% 0.00 in 40 W/m2
12:54 72.3 °F 55 °F 30.14 in NE 3 mph 12 mph 54.6% 0.00 in 167 W/m2
12:59 72.2 °F 54.4 °F 30.14 in ENE 2.1 mph 13 mph 53.6% 0.00 in 167 W/m2
13:04 72.1 °F 54.1 °F 30.14 in NNW 2.2 mph 13 mph 53.2% 0.00 in 167 W/m2
13:09 72.2 °F 54.2 °F 30.14 in North 1 mph 10 mph 53% 0.00 in 183 W/m2
13:14 72.2 °F 53.8 °F 30.14 in NNE 0.5 mph 10 mph 52.3% 0.00 in 97 W/m2
13:19 72.1 °F 54.4 °F 30.13 in NE 3.1 mph 11 mph 53.7% 0.00 in 169 W/m2
13:24 72.2 °F 54.7 °F 30.13 in NW 1.1 mph 11 mph 54.1% 0.00 in 69 W/m2
13:29 72.3 °F 54.9 °F 30.13 in NE 2.1 mph 11 mph 54.2% 0.00 in 49 W/m2
13:34 72.4 °F 54.4 °F 30.13 in NNE 0.8 mph 11 mph 53.1% 0.00 in 65 W/m2
13:39 72.4 °F 54.9 °F 30.12 in NE 2.4 mph 9 mph 54% 0.00 in 102 W/m2
13:44 72.5 °F 54.8 °F 30.12 in North 0.8 mph 9 mph 53.7% 0.00 in 77 W/m2
13:49 72.5 °F 54.5 °F 30.12 in ENE 1.2 mph 9 mph 53.2% 0.00 in 42 W/m2
13:54 72.6 °F 54.8 °F 30.12 in NNW 1.1 mph 10 mph 53.6% 0.00 in 42 W/m2
13:59 72.7 °F 55.3 °F 30.12 in NNW 1.1 mph 10 mph 54.3% 0.00 in 46 W/m2
14:04 72.8 °F 54.7 °F 30.12 in East 0.5 mph 10 mph 53.1% 0.00 in 51 W/m2
14:09 72.9 °F 55 °F 30.12 in NNW 0.9 mph 6 mph 53.4% 0.00 in 62 W/m2
14:14 72.9 °F 55.2 °F 30.12 in NW 1.5 mph 7 mph 53.8% 0.00 in 58 W/m2
14:19 73.1 °F 54.5 °F 30.12 in ENE 2.1 mph 7 mph 52.1% 0.00 in 60 W/m2
14:24 73 °F 53.9 °F 30.12 in NNW 2.2 mph 8 mph 51.2% 0.00 in 239 W/m2
14:29 73 °F 54.2 °F 30.12 in NNE 0.4 mph 8 mph 51.7% 0.00 in 165 W/m2
14:34 73 °F 53.2 °F 30.12 in NW 1.1 mph 9 mph 49.9% 0.00 in 70 W/m2
14:39 73.1 °F 53.2 °F 30.12 in NE 0.5 mph 9 mph 49.7% 0.00 in 142 W/m2
14:44 73.2 °F 53.6 °F 30.12 in NW 0.4 mph 9 mph 50.2% 0.00 in 97 W/m2
14:49 73.5 °F 53.7 °F 30.12 in North 0.2 mph 9 mph 50% 0.00 in 594 W/m2
14:54 73.6 °F 53.6 °F 30.12 in NE 0.2 mph 9 mph 49.5% 0.00 in 72 W/m2
14:59 73.6 °F 52.8 °F 30.12 in NE 0.1 mph 9 mph 48.2% 0.00 in 39 W/m2
15:04 73.5 °F 52.6 °F 30.12 in ENE 1.8 mph 9 mph 48% 0.00 in 37 W/m2
15:09 73.6 °F 52.4 °F 30.11 in North 0.3 mph 8 mph 47.5% 0.00 in 162 W/m2
15:14 73.7 °F 52.1 °F 30.11 in NW 2 mph 9 mph 46.8% 0.00 in 512 W/m2
15:19 73.9 °F 52 °F 30.11 in NE 1.3 mph 9 mph 46.3% 0.00 in 664 W/m2
15:24 74 °F 52.2 °F 30.11 in NNW 1.4 mph 9 mph 46.5% 0.00 in 647 W/m2
15:29 74 °F 51.5 °F 30.11 in NNW 0.5 mph 9 mph 45.2% 0.00 in 638 W/m2
15:34 74.2 °F 51.9 °F 30.11 in ENE 0.4 mph 9 mph 45.6% 0.00 in 633 W/m2
15:39 74.5 °F 51.6 °F 30.11 in NE 1.1 mph 5 mph 44.7% 0.00 in 626 W/m2
15:44 74.6 °F 51.7 °F 30.11 in NNW 0.9 mph 5 mph 44.7% 0.00 in 520 W/m2
15:49 74.7 °F 50.9 °F 30.11 in NE 0.4 mph 5 mph 43.2% 0.00 in 585 W/m2
15:54 74.7 °F 51.9 °F 30.11 in NNW 0.8 mph 5 mph 45% 0.00 in 557 W/m2
15:59 74.6 °F 51.7 °F 30.11 in ENE 0.3 mph 5 mph 44.7% 0.00 in 30 W/m2
16:00 74.5 °F 52.4 °F 30.11 in Calm   5 mph 46% 0.00 in 30 W/m2
16:09 74.2 °F 52.2 °F 30.11 in NNE 0.2 mph 4 mph 46% 0.00 in 28 W/m2
16:14 74.1 °F 50.2 °F 30.11 in NNW 0.8 mph 5 mph 43% 0.00 in 28 W/m2
16:19 74.1 °F 49.7 °F 30.11 in NW 1.1 mph 9 mph 42.3% 0.00 in 26 W/m2
16:24 74 °F 49.2 °F 30.11 in NNW 1.1 mph 9 mph 41.6% 0.00 in 26 W/m2
16:29 74 °F 49.3 °F 30.11 in NNW 0.6 mph 9 mph 41.7% 0.00 in 26 W/m2
16:34 74 °F 50.2 °F 30.11 in NNW 0.2 mph 9 mph 43.1% 0.00 in 25 W/m2
16:39 74 °F 50.6 °F 30.11 in NW 0.9 mph 9 mph 43.7% 0.00 in 25 W/m2
16:44 74 °F 51 °F 30.11 in NNW 0.7 mph 9 mph 44.5% 0.00 in 25 W/m2
16:49 74 °F 50.8 °F 30.11 in NNE 0.3 mph 9 mph 44.1% 0.00 in 25 W/m2
16:54 73.9 °F 49.8 °F 30.10 in NE 0.1 mph 9 mph 42.6% 0.00 in 23 W/m2
16:59 73.9 °F 50.8 °F 30.10 in Calm   9 mph 44.2% 0.00 in 23 W/m2
17:04 73.8 °F 50.2 °F 30.10 in NE 0.3 mph 9 mph 43.3% 0.00 in 23 W/m2
17:09 73.8 °F 50.4 °F 30.10 in Calm   2 mph 43.8% 0.00 in 23 W/m2
17:14 73.8 °F 50.5 °F 30.10 in NE 0.5 mph 3 mph 44% 0.00 in 23 W/m2
17:19 73.7 °F 50.1 °F 30.10 in NE 0.3 mph 3 mph 43.5% 0.00 in 21 W/m2
17:24 73.6 °F 49.8 °F 30.10 in Calm   3 mph 43.2% 0.00 in 21 W/m2
17:29 73.5 °F 50.5 °F 30.11 in Calm   3 mph 44.4% 0.00 in 21 W/m2
17:34 73.5 °F 51.1 °F 30.11 in NNE 0.2 mph 3 mph 45.4% 0.00 in 19 W/m2
17:39 73.4 °F 50.8 °F 30.10 in Calm   2 mph 45.1% 0.00 in 19 W/m2
17:44 73.3 °F 51.4 °F 30.11 in Calm   2 mph 46.2% 0.00 in 19 W/m2
17:49 73.1 °F 51.1 °F 30.11 in Calm   2 mph 46% 0.00 in 18 W/m2
17:54 72.9 °F 50.8 °F 30.11 in NE 0.3 mph 3 mph 45.7% 0.00 in 18 W/m2
17:59 72.7 °F 50.7 °F 30.11 in Calm   3 mph 45.8% 0.00 in 16 W/m2
18:04 72.6 °F 50.3 °F 30.11 in Calm   3 mph 45.5% 0.00 in 14 W/m2
18:09 72.4 °F 50.7 °F 30.11 in Calm     46.3% 0.00 in 14 W/m2
18:14 72.3 °F 50.8 °F 30.11 in Calm     46.8% 0.00 in 12 W/m2
18:19 72.1 °F 51.1 °F 30.12 in Calm     47.5% 0.00 in 11 W/m2
18:24 71.9 °F 50.9 °F 30.12 in Calm     47.4% 0.00 in 11 W/m2
18:29 71.7 °F 51 °F 30.12 in Calm     48% 0.00 in 9 W/m2
18:34 71.5 °F 51 °F 30.13 in Calm     48.4% 0.00 in 7 W/m2
18:39 71.3 °F 50.9 °F 30.13 in Calm     48.5% 0.00 in 5 W/m2
18:44 71 °F 51.1 °F 30.13 in Calm     49.3% 0.00 in 5 W/m2
18:49 70.8 °F 52.3 °F 30.13 in Calm     51.9% 0.00 in 0 W/m2
18:54 70.5 °F 53.2 °F 30.13 in Calm     54.3% 0.00 in 0 W/m2
18:59 70.3 °F 54.5 °F 30.13 in Calm     57.3% 0.00 in 0 W/m2
19:04 69.9 °F 55.2 °F 30.13 in Calm     59.4% 0.00 in 0 W/m2
19:09 69.6 °F 55.6 °F 30.13 in Calm     60.9% 0.00 in 0 W/m2
19:14 69.3 °F 55.8 °F 30.13 in Calm     62.2% 0.00 in 0 W/m2
19:19 68.9 °F 55.9 °F 30.13 in Calm     63.3% 0.00 in 0 W/m2
19:24 68.5 °F 56.3 °F 30.14 in Calm   1 mph 65% 0.00 in 0 W/m2
19:29 68.1 °F 56.3 °F 30.14 in Calm   1 mph 66.1% 0.00 in 0 W/m2
19:34 67.5 °F 56.2 °F 30.14 in Calm   1 mph 67% 0.00 in 0 W/m2
19:39 67.1 °F 55.9 °F 30.14 in Calm     67.3% 0.00 in 0 W/m2
19:44 66.8 °F 56.1 °F 30.14 in Calm     68.5% 0.00 in 0 W/m2
19:49 66.4 °F 56.5 °F 30.15 in Calm     70.5% 0.00 in 0 W/m2
19:54 66 °F 56.6 °F 30.15 in Calm     71.6% 0.00 in 0 W/m2
19:59 65.6 °F 56.7 °F 30.15 in Calm     72.9% 0.00 in 0 W/m2
20:00 65.4 °F 56.5 °F 30.15 in Calm     73% 0.00 in 0 W/m2
20:09 64.9 °F 56.1 °F 30.16 in Calm   1 mph 73% 0.00 in 0 W/m2
20:14 64.6 °F 55.8 °F 30.16 in Calm   1 mph 73% 0.00 in 0 W/m2
20:19 64.3 °F 55.5 °F 30.16 in Calm   1 mph 73% 0.00 in 0 W/m2
20:24 64.1 °F 55.6 °F 30.16 in NE 0.3 mph 2 mph 73.8% 0.00 in 0 W/m2
20:29 63.9 °F 56.3 °F 30.17 in NE 0.3 mph 3 mph 76.2% 0.00 in 0 W/m2
20:34 63.6 °F 56.1 °F 30.17 in Calm   3 mph 76.4% 0.00 in 0 W/m2
20:39 63.3 °F 55.2 °F 30.17 in Calm     74.9% 0.00 in 0 W/m2
20:44 63 °F 54.6 °F 30.17 in Calm     74% 0.00 in 0 W/m2
20:49 62.9 °F 54.6 °F 30.17 in Calm     74.3% 0.00 in 0 W/m2
20:54 62.8 °F 54.8 °F 30.17 in Calm     75.2% 0.00 in 0 W/m2
20:59 62.7 °F 55.1 °F 30.17 in Calm     76% 0.00 in 0 W/m2
21:04 62.7 °F 55.1 °F 30.17 in Calm     76.1% 0.00 in 0 W/m2
21:09 62.7 °F 55.4 °F 30.17 in Calm     77% 0.00 in 0 W/m2
21:14 62.7 °F 55.4 °F 30.17 in Calm     77% 0.00 in 0 W/m2
21:30 62.7 °F 55.8 °F 30.17 in Calm     78% 0.00 in 0 W/m2
22:30 61.4 °F 55.5 °F 30.19 in Calm     81% 0.00 in 0 W/m2
23:00 60.6 °F 55.4 °F 30.21 in Calm     83% 0.00 in 0 W/m2
23:30 59.8 °F 55.3 °F 30.21 in Calm     85% 0.00 in 0 W/m2
Hartford County Weather
Compliments of Weather Underground - 4 mb